Time;durP1;ratioP1;P1;durP2;ratioP2;P2;SDS_P1;SDS_P2;PMS_P1;PMS_P2;Temp;Humidity;BMP_temperature;BMP_pressure;BME280_temperature;BME280_humidity;BME280_pressure;Samples;Min_cycle;Max_cycle;Signal;HPM_P1;HPM_P2
2021/06/06 00:00:47;;;;;;;11.63;8.87;;;15.90;99.90;;;;;;5001573;28;20619;-79
2021/06/06 00:03:25;;;;;;;15.17;10.03;;;15.80;99.90;;;;;;5013088;28;20657;-77
2021/06/06 00:05:56;;;;;;;15.17;9.97;;;15.80;99.90;;;;;;5018985;28;20283;-77
2021/06/06 00:08:25;;;;;;;19.43;10.57;;;15.90;99.90;;;;;;5030407;28;20206;-77
2021/06/06 00:11:16;;;;;;;20.07;10.43;;;15.70;99.90;;;;;;5013423;28;20628;-77
2021/06/06 00:13:44;;;;;;;14.97;8.20;;;15.80;99.90;;;;;;5005370;28;20238;-77
2021/06/06 00:16:16;;;;;;;12.80;9.90;;;16.00;99.90;;;;;;4993731;28;20222;-78
2021/06/06 00:18:44;;;;;;;12.27;9.10;;;16.00;99.90;;;;;;4992800;28;20206;-78
2021/06/06 00:21:11;;;;;;;12.60;9.00;;;16.00;99.90;;;;;;4992783;28;20206;-78
2021/06/06 00:23:39;;;;;;;16.30;8.93;;;15.90;99.90;;;;;;4979270;28;20245;-78
2021/06/06 00:26:07;;;;;;;12.93;9.17;;;16.10;99.90;;;;;;4987307;28;20319;-77
2021/06/06 00:28:35;;;;;;;11.00;8.20;;;16.00;99.90;;;;;;4977000;28;20202;-78
2021/06/06 00:31:05;;;;;;;10.53;8.93;;;15.80;99.90;;;;;;4989781;28;20591;-78
2021/06/06 00:33:32;;;;;;;13.83;9.17;;;15.80;99.90;;;;;;5008720;28;20232;-78
2021/06/06 00:35:59;;;;;;;14.73;8.83;;;15.70;99.90;;;;;;4975195;28;20325;-79
2021/06/06 00:38:27;;;;;;;10.67;8.23;;;15.70;99.90;;;;;;4993579;28;20212;-78
2021/06/06 00:40:57;;;;;;;15.07;9.40;;;15.90;99.90;;;;;;4987020;28;20194;-78
2021/06/06 00:43:26;;;;;;;13.70;9.10;;;15.90;99.90;;;;;;5001200;28;20203;-78
2021/06/06 00:45:53;;;;;;;11.60;8.87;;;15.70;99.90;;;;;;5001663;28;20212;-78
2021/06/06 00:48:20;;;;;;;10.93;8.20;;;15.60;99.90;;;;;;4984637;28;20215;-78
2021/06/06 00:50:50;;;;;;;13.43;9.07;;;15.50;99.90;;;;;;4990047;28;20304;-78
2021/06/06 00:53:24;;;;;;;14.90;8.00;;;15.60;99.90;;;;;;5008166;28;20206;-78
2021/06/06 00:55:51;;;;;;;13.10;9.10;;;15.60;99.90;;;;;;4986753;28;20213;-78
2021/06/06 00:58:19;;;;;;;14.07;9.27;;;15.60;99.90;;;;;;4990412;28;20264;-78
2021/06/06 01:00:49;;;;;;;14.00;9.63;;;15.80;99.90;;;;;;4997810;28;20217;-79
2021/06/06 01:03:18;;;;;;;13.40;9.60;;;15.80;99.90;;;;;;4987084;28;20620;-78
2021/06/06 01:05:52;;;;;;;12.77;9.17;;;15.80;99.90;;;;;;4987766;28;20570;-78
2021/06/06 01:08:20;;;;;;;15.40;8.57;;;15.60;99.90;;;;;;5003737;28;20209;-79
2021/06/06 01:10:54;;;;;;;18.40;9.63;;;15.70;99.90;;;;;;4987297;28;20265;-78
2021/06/06 01:13:27;;;;;;;16.83;9.57;;;15.70;99.90;;;;;;4999534;28;20316;-78
2021/06/06 01:16:01;;;;;;;14.40;9.57;;;15.70;99.90;;;;;;5008891;28;20584;-78
2021/06/06 01:18:33;;;;;;;18.03;10.60;;;15.80;99.90;;;;;;5028375;28;20300;-78
2021/06/06 01:21:05;;;;;;;13.37;10.07;;;15.80;99.90;;;;;;5008487;28;20233;-78
2021/06/06 01:23:41;;;;;;;13.77;10.20;;;15.80;99.90;;;;;;5028306;28;20256;-78
2021/06/06 01:26:21;;;;;;;14.83;10.70;;;15.70;99.90;;;;;;5030697;28;20247;-78
2021/06/06 01:29:14;;;;;;;14.80;10.83;;;15.60;99.90;;;;;;5009875;28;20229;-79
2021/06/06 01:31:45;;;;;;;16.37;11.07;;;15.70;99.90;;;;;;5020766;28;20255;-79
2021/06/06 01:34:16;;;;;;;15.03;11.43;;;15.70;99.90;;;;;;5011113;28;20198;-78
2021/06/06 01:36:58;;;;;;;18.60;11.30;;;15.60;99.90;;;;;;5011477;28;20231;-78
2021/06/06 01:39:34;;;;;;;18.17;11.53;;;15.70;99.90;;;;;;5002288;28;20632;-78
2021/06/06 01:42:10;;;;;;;16.07;11.13;;;15.70;99.90;;;;;;5012208;28;20556;-78
2021/06/06 01:44:39;;;;;;;17.67;11.30;;;15.70;99.90;;;;;;5009613;28;20201;-78
2021/06/06 01:47:18;;;;;;;14.83;10.47;;;15.40;99.90;;;;;;5025042;28;20219;-78
2021/06/06 01:49:50;;;;;;;17.37;10.87;;;15.40;99.90;;;;;;5015741;28;20200;-78
2021/06/06 01:52:19;;;;;;;15.33;10.27;;;15.50;99.90;;;;;;5034932;28;20306;-78
2021/06/06 01:54:47;;;;;;;19.70;11.27;;;15.20;99.90;;;;;;5014409;28;20196;-78
2021/06/06 01:57:21;;;;;;;15.63;10.33;;;15.10;99.90;;;;;;5012356;28;20671;-78
2021/06/06 01:59:52;;;;;;;16.97;10.63;;;15.00;99.90;;;;;;5016264;28;20204;-78
2021/06/06 02:02:19;;;;;;;15.00;9.33;;;14.90;99.90;;;;;;5014583;28;20196;-78
2021/06/06 02:04:47;;;;;;;14.40;10.17;;;15.10;99.90;;;;;;5004670;28;20277;-78
2021/06/06 02:07:21;;;;;;;16.97;10.10;;;15.10;99.90;;;;;;4982136;28;20212;-78
2021/06/06 02:10:01;;;;;;;16.00;10.40;;;15.00;99.90;;;;;;5009724;28;20236;-79
2021/06/06 02:12:32;;;;;;;14.97;10.07;;;14.90;99.90;;;;;;5028453;28;20246;-79
2021/06/06 02:15:01;;;;;;;17.13;10.83;;;14.90;99.90;;;;;;5009810;28;20212;-79
2021/06/06 02:17:31;;;;;;;16.47;11.80;;;15.10;99.90;;;;;;5024048;28;20208;-79
2021/06/06 02:20:00;;;;;;;14.57;10.87;;;15.00;99.90;;;;;;5009022;28;20308;-79
2021/06/06 02:22:29;;;;;;;17.70;11.07;;;15.10;99.90;;;;;;5007364;28;20208;-79
2021/06/06 02:24:59;;;;;;;16.23;11.43;;;15.00;99.90;;;;;;5008737;28;21350;-79
2021/06/06 02:27:30;;;;;;;15.77;11.73;;;14.90;99.90;;;;;;5008395;28;20697;-79
2021/06/06 02:30:02;;;;;;;18.67;11.73;;;15.00;99.90;;;;;;5014682;28;20245;-78
2021/06/06 02:32:36;;;;;;;15.97;11.37;;;15.00;99.90;;;;;;5026125;28;20319;-78
2021/06/06 02:35:07;;;;;;;17.37;11.67;;;15.10;99.90;;;;;;5006318;28;20219;-78
2021/06/06 02:37:52;;;;;;;15.03;11.17;;;15.00;99.90;;;;;;5003946;28;20196;-78
2021/06/06 02:40:53;;;;;;;16.67;11.73;;;15.00;99.90;;;;;;5006722;28;20222;-78
2021/06/06 02:43:39;;;;;;;18.90;10.80;;;15.10;99.90;;;;;;5006938;28;20281;-79
2021/06/06 02:46:08;;;;;;;16.47;11.73;;;15.20;99.90;;;;;;5009412;28;20270;-79
2021/06/06 02:48:41;;;;;;;15.93;11.27;;;15.20;99.90;;;;;;5000747;28;20601;-78
2021/06/06 02:51:14;;;;;;;16.13;10.57;;;15.20;99.90;;;;;;5012368;28;20283;-78
2021/06/06 02:53:50;;;;;;;18.17;11.60;;;15.40;99.90;;;;;;5025157;28;20280;-78
2021/06/06 02:56:23;;;;;;;15.00;10.20;;;15.10;99.90;;;;;;5018884;28;20233;-78
2021/06/06 02:59:11;;;;;;;15.57;10.73;;;15.20;99.90;;;;;;5007653;28;20565;-78
2021/06/06 03:01:44;;;;;;;15.00;10.77;;;15.30;99.90;;;;;;5008851;28;20207;-79
2021/06/06 03:04:22;;;;;;;15.77;10.70;;;15.40;99.90;;;;;;5006372;28;20214;-79
2021/06/06 03:06:54;;;;;;;15.00;10.63;;;15.40;99.90;;;;;;5008022;28;20217;-78
2021/06/06 03:09:21;;;;;;;17.87;11.10;;;15.30;99.90;;;;;;5009621;28;20208;-78
2021/06/06 03:11:52;;;;;;;18.30;11.53;;;15.20;99.90;;;;;;5009115;28;20231;-78
2021/06/06 03:14:22;;;;;;;14.67;10.23;;;15.20;99.90;;;;;;5016207;28;21602;-78
2021/06/06 03:17:03;;;;;;;15.93;11.27;;;15.30;99.90;;;;;;5006743;28;20727;-78
2021/06/06 03:19:36;;;;;;;15.87;10.73;;;15.20;99.90;;;;;;5007962;28;20582;-78
2021/06/06 03:22:06;;;;;;;17.63;10.20;;;15.30;99.90;;;;;;5003650;28;20236;-78
2021/06/06 03:24:40;;;;;;;18.37;10.93;;;15.30;99.90;;;;;;4989455;28;20199;-78
2021/06/06 03:27:09;;;;;;;18.60;10.63;;;15.20;99.90;;;;;;5005203;28;20209;-78
2021/06/06 03:29:56;;;;;;;18.00;11.27;;;15.10;99.90;;;;;;5006974;28;20207;-79
2021/06/06 03:32:28;;;;;;;16.23;10.50;;;15.10;99.90;;;;;;5006288;28;20228;-79
2021/06/06 03:34:55;;;;;;;14.93;10.13;;;15.10;99.90;;;;;;5019961;28;20221;-79
2021/06/06 03:37:25;;;;;;;14.70;10.17;;;15.10;99.90;;;;;;5005477;28;20227;-79
2021/06/06 03:39:57;;;;;;;18.37;10.87;;;15.20;99.90;;;;;;5002683;28;20216;-80
2021/06/06 03:42:24;;;;;;;16.50;10.60;;;15.20;99.90;;;;;;5007146;28;20690;-79
2021/06/06 03:44:51;;;;;;;13.80;10.67;;;15.10;99.90;;;;;;5006350;28;20198;-79
2021/06/06 03:47:18;;;;;;;16.97;10.87;;;15.20;99.90;;;;;;4984263;28;20608;-79
2021/06/06 03:49:46;;;;;;;18.10;11.77;;;15.20;99.90;;;;;;4992177;28;20291;-80
2021/06/06 03:52:12;;;;;;;16.73;11.37;;;15.30;99.90;;;;;;4992041;28;20212;-80
2021/06/06 03:54:39;;;;;;;16.23;11.97;;;15.20;99.90;;;;;;5010116;28;20934;-80
2021/06/06 03:57:07;;;;;;;16.67;11.20;;;15.10;99.90;;;;;;4987230;28;20276;-80
2021/06/06 03:59:35;;;;;;;17.63;11.63;;;14.90;99.90;;;;;;5007666;28;20197;-80
2021/06/06 04:02:02;;;;;;;18.63;10.90;;;15.10;99.90;;;;;;5007320;28;20273;-80
2021/06/06 04:04:33;;;;;;;19.87;12.40;;;15.10;99.90;;;;;;4988858;28;20209;-80
2021/06/06 04:07:00;;;;;;;17.23;11.13;;;15.00;99.90;;;;;;4971351;28;20267;-80
2021/06/06 04:09:27;;;;;;;21.37;12.90;;;15.10;99.90;;;;;;4986201;28;20485;-79
2021/06/06 04:11:54;;;;;;;20.03;13.00;;;15.10;99.90;;;;;;4987544;28;20206;-79
2021/06/06 04:14:21;;;;;;;20.80;13.07;;;15.00;99.90;;;;;;5003008;28;20233;-79
2021/06/06 04:16:48;;;;;;;19.50;12.70;;;15.10;99.90;;;;;;5002050;28;20224;-80
2021/06/06 04:19:15;;;;;;;23.17;12.70;;;15.20;99.90;;;;;;4971889;28;20194;-80
2021/06/06 04:21:42;;;;;;;23.50;12.97;;;15.20;99.90;;;;;;4987913;28;20246;-79
2021/06/06 04:24:09;;;;;;;21.90;13.83;;;15.20;99.90;;;;;;5003297;28;20243;-79
2021/06/06 04:26:35;;;;;;;20.27;12.50;;;15.30;99.90;;;;;;5001776;28;20297;-79
2021/06/06 04:29:03;;;;;;;24.50;12.83;;;15.00;99.90;;;;;;4982237;28;20229;-79
2021/06/06 04:31:30;;;;;;;20.17;12.17;;;15.00;99.90;;;;;;5004510;28;20677;-78
2021/06/06 04:33:57;;;;;;;19.73;12.40;;;14.90;99.90;;;;;;5002780;28;20283;-78
2021/06/06 04:36:24;;;;;;;18.27;12.47;;;14.80;99.90;;;;;;4990449;28;20245;-78
2021/06/06 04:38:51;;;;;;;21.60;13.23;;;14.80;99.90;;;;;;4987964;28;20507;-79
2021/06/06 04:41:18;;;;;;;23.57;12.90;;;14.70;99.90;;;;;;4988750;28;20260;-79
2021/06/06 04:43:45;;;;;;;23.73;13.13;;;14.80;99.90;;;;;;4989934;28;20250;-79
2021/06/06 04:46:14;;;;;;;18.60;13.03;;;14.90;99.90;;;;;;4994923;28;20252;-79
2021/06/06 04:48:44;;;;;;;17.47;11.63;;;14.80;99.90;;;;;;5001182;28;20634;-79
2021/06/06 04:51:19;;;;;;;18.50;11.63;;;14.80;99.90;;;;;;5003911;28;20210;-79
2021/06/06 04:53:50;;;;;;;27.40;12.83;;;15.00;99.90;;;;;;5008054;28;20649;-79
2021/06/06 04:56:24;;;;;;;17.97;12.33;;;14.90;99.90;;;;;;4991937;28;20322;-79
2021/06/06 04:58:51;;;;;;;19.57;11.73;;;14.90;99.90;;;;;;5005911;28;20198;-78
2021/06/06 05:01:18;;;;;;;18.67;12.00;;;15.00;99.90;;;;;;5012568;28;20259;-79
2021/06/06 05:03:47;;;;;;;17.47;11.73;;;14.80;99.90;;;;;;4989331;28;20214;-79
2021/06/06 05:06:14;;;;;;;17.40;11.20;;;14.90;99.90;;;;;;5009015;28;20201;-79
2021/06/06 05:08:41;;;;;;;16.70;10.80;;;14.90;99.90;;;;;;4993001;28;20228;-79
2021/06/06 05:11:09;;;;;;;17.53;11.97;;;15.00;99.90;;;;;;4987384;28;20231;-78
2021/06/06 05:13:35;;;;;;;18.03;11.13;;;15.10;99.90;;;;;;5005721;28;20225;-78
2021/06/06 05:16:03;;;;;;;16.00;10.00;;;15.00;99.90;;;;;;5014294;28;20232;-79
2021/06/06 05:18:30;;;;;;;17.90;11.30;;;15.10;99.90;;;;;;4993719;28;20251;-79
2021/06/06 05:20:57;;;;;;;14.03;10.73;;;15.10;99.90;;;;;;5007511;28;20208;-79
2021/06/06 05:23:27;;;;;;;21.00;10.60;;;15.00;99.90;;;;;;4995293;28;20256;-79
2021/06/06 05:25:55;;;;;;;15.47;9.87;;;15.10;99.90;;;;;;5010964;28;20242;-78
2021/06/06 05:28:26;;;;;;;16.90;10.87;;;15.10;99.90;;;;;;5026043;28;20276;-78
2021/06/06 05:30:53;;;;;;;16.40;11.23;;;15.10;99.90;;;;;;5026366;28;20316;-78
2021/06/06 05:33:21;;;;;;;13.73;10.70;;;14.90;99.90;;;;;;5000834;28;20256;-79
2021/06/06 05:35:48;;;;;;;12.00;9.90;;;15.00;99.90;;;;;;5008783;28;20209;-79
2021/06/06 05:38:16;;;;;;;15.93;10.20;;;14.90;99.90;;;;;;4992773;28;20196;-79
2021/06/06 05:40:43;;;;;;;15.43;10.07;;;14.90;99.90;;;;;;4996102;28;20194;-79
2021/06/06 05:43:12;;;;;;;11.53;8.93;;;15.00;99.90;;;;;;5006897;28;20308;-79
2021/06/06 05:45:39;;;;;;;15.20;9.53;;;15.00;99.90;;;;;;5012445;28;20251;-79
2021/06/06 05:48:08;;;;;;;16.00;9.43;;;15.10;99.90;;;;;;5011633;28;20208;-79
2021/06/06 05:50:40;;;;;;;12.90;9.97;;;15.10;99.90;;;;;;5009919;28;20208;-79
2021/06/06 05:53:07;;;;;;;13.47;8.97;;;15.10;99.90;;;;;;4990976;28;20535;-79
2021/06/06 05:55:34;;;;;;;12.20;8.43;;;14.90;99.90;;;;;;5009966;28;20284;-79
2021/06/06 05:58:02;;;;;;;11.37;7.83;;;15.00;99.90;;;;;;5010354;28;20236;-79
2021/06/06 06:00:33;;;;;;;13.47;7.80;;;15.10;99.90;;;;;;5008211;28;20213;-80
2021/06/06 06:03:00;;;;;;;14.33;9.40;;;15.30;99.90;;;;;;5013763;28;20420;-79
2021/06/06 06:05:27;;;;;;;9.60;8.03;;;15.40;99.90;;;;;;4993060;28;20626;-79
2021/06/06 06:07:54;;;;;;;12.20;8.23;;;15.40;99.90;;;;;;4994508;28;20201;-79
2021/06/06 06:10:28;;;;;;;10.77;7.53;;;15.40;99.90;;;;;;5008667;28;20211;-79
2021/06/06 06:12:56;;;;;;;12.57;8.87;;;15.50;99.90;;;;;;4990361;28;20614;-79
2021/06/06 06:15:23;;;;;;;11.47;7.80;;;15.50;99.90;;;;;;5008218;28;20211;-79
2021/06/06 06:17:50;;;;;;;12.17;7.93;;;15.50;99.90;;;;;;4994312;28;20221;-79
2021/06/06 06:20:19;;;;;;;13.70;8.37;;;15.50;99.90;;;;;;5005694;28;20206;-80
2021/06/06 06:22:46;;;;;;;12.87;7.87;;;15.70;99.90;;;;;;5009455;28;20199;-80
2021/06/06 06:25:16;;;;;;;13.17;7.53;;;15.40;99.90;;;;;;5007340;28;20570;-80
2021/06/06 06:27:44;;;;;;;10.70;7.47;;;15.50;99.90;;;;;;5010457;28;20327;-79
2021/06/06 06:30:15;;;;;;;11.90;8.27;;;15.50;99.90;;;;;;5008007;28;20210;-79
2021/06/06 06:32:43;;;;;;;10.63;7.80;;;15.60;99.90;;;;;;5024568;28;20237;-78
2021/06/06 06:35:11;;;;;;;10.33;7.83;;;15.50;99.90;;;;;;5013252;28;20225;-79
2021/06/06 06:37:38;;;;;;;11.03;7.87;;;15.40;99.90;;;;;;4993462;28;20379;-79
2021/06/06 06:40:09;;;;;;;11.13;8.23;;;15.60;99.90;;;;;;5012327;28;20336;-79
2021/06/06 06:42:36;;;;;;;10.77;8.40;;;15.50;99.90;;;;;;5012646;28;20194;-80
2021/06/06 06:45:06;;;;;;;11.30;8.17;;;15.60;99.90;;;;;;5000202;28;20227;-79
2021/06/06 06:47:34;;;;;;;14.23;8.30;;;15.60;99.90;;;;;;5014564;28;20201;-80
2021/06/06 06:50:01;;;;;;;17.90;8.53;;;15.50;99.90;;;;;;4992360;28;20221;-80
2021/06/06 06:52:28;;;;;;;12.10;8.27;;;15.60;99.90;;;;;;5010996;28;20209;-79
2021/06/06 06:54:55;;;;;;;12.63;8.03;;;15.60;99.90;;;;;;4996664;28;20260;-80
2021/06/06 06:57:22;;;;;;;12.03;8.40;;;15.80;99.90;;;;;;5012588;28;20224;-80
2021/06/06 06:59:48;;;;;;;17.03;8.73;;;15.90;99.90;;;;;;4998727;28;20233;-79
2021/06/06 07:02:15;;;;;;;13.73;8.77;;;16.00;99.90;;;;;;4992562;28;20263;-79
2021/06/06 07:04:43;;;;;;;9.00;7.17;;;15.70;99.90;;;;;;5011852;28;20326;-79
2021/06/06 07:07:10;;;;;;;11.77;8.00;;;15.60;99.90;;;;;;5010796;28;20202;-79
2021/06/06 07:09:37;;;;;;;13.83;7.93;;;15.60;99.90;;;;;;5010602;28;20215;-79
2021/06/06 07:12:04;;;;;;;11.13;7.90;;;15.70;99.90;;;;;;4995813;28;20248;-79
2021/06/06 07:14:31;;;;;;;12.83;8.10;;;15.80;99.90;;;;;;4995496;28;20596;-79
2021/06/06 07:16:57;;;;;;;13.43;8.20;;;15.60;99.90;;;;;;4996642;28;20288;-79
2021/06/06 07:19:26;;;;;;;11.27;7.83;;;15.70;99.90;;;;;;4990655;28;20197;-79
2021/06/06 07:21:53;;;;;;;10.97;7.80;;;15.90;99.90;;;;;;5012937;28;20198;-79
2021/06/06 07:24:20;;;;;;;11.43;7.90;;;16.00;99.90;;;;;;4991848;28;20201;-80
2021/06/06 07:26:49;;;;;;;10.33;7.67;;;15.80;99.90;;;;;;5011322;28;20216;-79
2021/06/06 07:29:20;;;;;;;12.70;7.80;;;15.80;99.90;;;;;;5010958;28;20210;-79
2021/06/06 07:31:48;;;;;;;13.88;9.70;;;15.90;99.90;;;;;;5010315;28;20509;-80
2021/06/06 07:34:17;;;;;;;11.47;7.50;;;16.00;99.90;;;;;;4998175;28;20211;-80
2021/06/06 07:36:44;;;;;;;10.43;7.33;;;16.10;99.90;;;;;;4994434;28;22588;-80
2021/06/06 07:39:13;;;;;;;11.03;7.90;;;16.10;99.90;;;;;;4995111;28;20269;-80
2021/06/06 07:41:40;;;;;;;9.57;6.73;;;16.30;99.90;;;;;;5013882;28;20652;-80
2021/06/06 07:44:07;;;;;;;10.83;7.27;;;16.30;99.90;;;;;;5012229;28;20269;-79
2021/06/06 07:46:35;;;;;;;8.87;6.70;;;16.30;99.90;;;;;;5005544;28;20201;-80
2021/06/06 07:49:03;;;;;;;8.80;6.80;;;16.50;99.90;;;;;;4993612;28;20238;-79
2021/06/06 07:51:30;;;;;;;11.80;7.03;;;16.60;99.90;;;;;;5010350;28;20240;-80
2021/06/06 07:53:57;;;;;;;9.83;7.07;;;16.70;99.90;;;;;;4978631;28;20579;-79
2021/06/06 07:56:24;;;;;;;11.27;7.27;;;16.70;99.90;;;;;;5011922;28;20203;-79
2021/06/06 07:58:52;;;;;;;9.83;6.67;;;16.90;99.90;;;;;;5009113;28;20363;-79
2021/06/06 08:01:20;;;;;;;9.47;7.27;;;16.70;99.90;;;;;;5009085;28;20293;-79
2021/06/06 08:03:52;;;;;;;12.43;6.57;;;16.90;99.90;;;;;;4991997;28;20990;-79
2021/06/06 08:06:21;;;;;;;8.30;5.57;;;17.00;99.90;;;;;;4998350;28;21090;-79
2021/06/06 08:08:51;;;;;;;9.63;5.80;;;17.10;99.90;;;;;;5006650;28;20206;-79
2021/06/06 08:11:18;;;;;;;9.33;6.70;;;17.10;99.90;;;;;;5007960;28;20260;-79
2021/06/06 08:13:46;;;;;;;10.23;6.37;;;17.30;99.90;;;;;;4992319;28;20224;-80
2021/06/06 08:16:13;;;;;;;8.77;6.40;;;17.10;99.90;;;;;;4980016;28;20231;-80
2021/06/06 08:18:43;;;;;;;8.90;6.13;;;17.10;99.90;;;;;;4976773;28;20229;-80
2021/06/06 08:21:29;;;;;;;11.13;6.40;;;17.10;99.90;;;;;;5010190;28;20203;-80
2021/06/06 08:23:56;;;;;;;11.20;6.50;;;17.00;99.90;;;;;;5009779;28;20213;-79
2021/06/06 08:26:24;;;;;;;8.50;6.57;;;17.00;99.90;;;;;;5001185;28;20282;-79
2021/06/06 08:28:53;;;;;;;8.83;6.33;;;16.90;99.90;;;;;;5014396;28;20251;-82
2021/06/06 08:31:24;;;;;;;7.87;5.83;;;17.10;99.90;;;;;;5009247;28;20586;-82
2021/06/06 08:33:51;;;;;;;7.67;5.77;;;17.40;99.90;;;;;;5012260;28;20294;-80
2021/06/06 08:36:21;;;;;;;7.43;6.13;;;17.50;99.90;;;;;;5012794;28;21033;-81
2021/06/06 08:38:49;;;;;;;7.67;5.73;;;18.00;99.90;;;;;;5008426;28;20754;-81
2021/06/06 08:41:19;;;;;;;7.70;5.73;;;18.60;99.90;;;;;;4991951;28;20267;-81
2021/06/06 08:43:58;;;;;;;7.90;5.97;;;18.70;99.90;;;;;;5006315;28;20202;-83
2021/06/06 08:46:30;;;;;;;7.17;5.93;;;18.00;99.90;;;;;;5012328;28;20203;-82
2021/06/06 08:48:57;;;;;;;8.27;6.00;;;18.20;99.90;;;;;;4989927;28;20573;-80
2021/06/06 08:51:39;;;;;;;8.67;5.90;;;18.40;99.90;;;;;;4997290;28;20609;-83
2021/06/06 08:54:20;;;;;;;8.40;6.03;;;18.50;99.90;;;;;;5014354;28;20579;-84
2021/06/06 08:56:57;;;;;;;7.47;5.97;;;18.80;99.90;;;;;;5013634;28;20284;-83
2021/06/06 08:59:33;;;;;;;8.33;6.10;;;19.00;99.90;;;;;;5012707;28;20256;-81
2021/06/06 09:02:28;;;;;;;8.47;6.40;;;18.80;99.90;;;;;;5027148;28;20220;-81
2021/06/06 09:04:56;;;;;;;6.87;5.97;;;19.00;99.90;;;;;;5005939;28;20211;-81
2021/06/06 09:07:40;;;;;;;8.93;5.53;;;19.40;99.90;;;;;;5014937;28;20621;-81
2021/06/06 09:10:13;;;;;;;7.03;6.30;;;19.90;99.90;;;;;;5001875;28;20213;-80
2021/06/06 09:12:41;;;;;;;10.10;7.07;;;19.20;99.90;;;;;;5014435;28;20236;-80
2021/06/06 09:15:11;;;;;;;10.23;7.50;;;19.40;99.90;;;;;;5016663;28;20351;-80
2021/06/06 09:17:49;;;;;;;9.60;6.80;;;19.70;99.90;;;;;;5016663;28;20277;-79
2021/06/06 09:20:28;;;;;;;9.23;7.30;;;19.60;99.90;;;;;;5012522;28;20204;-80
2021/06/06 09:23:05;;;;;;;10.07;8.03;;;19.30;99.90;;;;;;5011423;28;20224;-80
2021/06/06 09:25:37;;;;;;;7.47;6.67;;;19.00;99.90;;;;;;5012533;28;20195;-80
2021/06/06 09:28:06;;;;;;;9.17;6.87;;;19.10;99.90;;;;;;5022029;28;20217;-80
2021/06/06 09:30:35;;;;;;;7.70;6.90;;;19.30;99.90;;;;;;5017739;28;20244;-80
2021/06/06 09:33:20;;;;;;;11.30;8.17;;;19.50;99.90;;;;;;5025765;28;20204;-78
2021/06/06 09:35:55;;;;;;;9.17;7.87;;;19.50;99.90;;;;;;5017519;28;20199;-79
2021/06/06 09:38:30;;;;;;;10.43;8.40;;;19.30;99.90;;;;;;5031973;28;20694;-80
2021/06/06 09:41:32;;;;;;;10.63;7.90;;;19.10;99.90;;;;;;5022638;28;20254;-81
2021/06/06 09:44:14;;;;;;;7.80;6.83;;;19.00;99.90;;;;;;5020579;28;20218;-77
2021/06/06 09:46:42;;;;;;;8.43;7.03;;;19.20;99.90;;;;;;5012759;28;20284;-78
2021/06/06 09:49:34;;;;;;;8.10;6.27;;;19.10;99.90;;;;;;5024406;28;20217;-79
2021/06/06 09:52:20;;;;;;;7.33;6.53;;;19.10;99.90;;;;;;5016104;28;20288;-79
2021/06/06 09:54:56;;;;;;;7.13;6.40;;;19.30;99.90;;;;;;5027365;28;20201;-78
2021/06/06 09:57:34;;;;;;;7.80;6.73;;;19.20;99.90;;;;;;5028417;28;20659;-80
2021/06/06 10:00:08;;;;;;;9.87;6.93;;;19.70;99.90;;;;;;5030259;28;20233;-79
2021/06/06 10:02:39;;;;;;;8.50;7.17;;;20.00;99.90;;;;;;5012097;28;20196;-80
2021/06/06 10:05:16;;;;;;;9.20;7.83;;;19.80;99.90;;;;;;5029278;28;20205;-80
2021/06/06 10:08:00;;;;;;;10.93;8.27;;;19.30;99.90;;;;;;5016298;28;20199;-81
2021/06/06 10:10:30;;;;;;;12.97;9.00;;;19.40;99.90;;;;;;5032442;28;20203;-80
2021/06/06 10:13:02;;;;;;;11.57;8.33;;;19.20;99.90;;;;;;5014041;28;20687;-80
2021/06/06 10:15:45;;;;;;;9.53;8.53;;;19.40;99.90;;;;;;5016733;28;20228;-80
2021/06/06 10:18:22;;;;;;;10.63;8.43;;;19.80;99.90;;;;;;5028433;28;20209;-80
2021/06/06 10:21:06;;;;;;;13.17;9.57;;;20.00;99.90;;;;;;5013386;28;20547;-79
2021/06/06 10:23:37;;;;;;;10.83;8.63;;;19.70;99.90;;;;;;5011552;28;20710;-81
2021/06/06 10:26:16;;;;;;;11.17;9.00;;;20.10;99.90;;;;;;5010659;28;20217;-78
2021/06/06 10:28:51;;;;;;;9.33;7.83;;;20.40;99.90;;;;;;5005112;28;20623;-79
2021/06/06 10:31:28;;;;;;;10.47;8.70;;;20.70;99.90;;;;;;5009638;28;20231;-79
2021/06/06 10:34:01;;;;;;;9.77;7.77;;;20.30;99.90;;;;;;5013050;28;20514;-79
2021/06/06 10:36:31;;;;;;;10.83;8.37;;;20.50;99.90;;;;;;5019403;28;20218;-80
2021/06/06 10:38:59;;;;;;;9.97;7.47;;;20.00;99.90;;;;;;5016009;28;20227;-81
2021/06/06 10:41:47;;;;;;;8.43;7.47;;;20.10;99.90;;;;;;5024975;28;20289;-80
2021/06/06 10:45:01;;;;;;;9.97;8.40;;;20.30;99.90;;;;;;5014145;28;20198;-78
2021/06/06 10:47:42;;;;;;;9.93;7.27;;;20.20;99.90;;;;;;4972154;28;20249;-79
2021/06/06 10:50:41;;;;;;;9.97;7.93;;;20.30;99.90;;;;;;4956988;28;20204;-79
2021/06/06 10:53:21;;;;;;;11.17;8.87;;;20.00;99.90;;;;;;5010052;28;22168;-79
2021/06/06 10:56:09;;;;;;;10.80;7.50;;;20.20;99.90;;;;;;5019320;28;20635;-80
2021/06/06 10:58:56;;;;;;;12.40;8.57;;;20.30;99.90;;;;;;5012435;28;20703;-79
2021/06/06 11:01:44;;;;;;;10.17;8.40;;;20.40;99.90;;;;;;5012246;28;20203;-79
2021/06/06 11:04:14;;;;;;;9.17;8.27;;;21.10;99.90;;;;;;5011582;28;20299;-80
2021/06/06 11:06:46;;;;;;;10.07;8.03;;;21.10;99.90;;;;;;5019796;28;20203;-80
2021/06/06 11:09:31;;;;;;;10.63;8.53;;;21.10;99.90;;;;;;5023124;28;20218;-81
2021/06/06 11:12:12;;;;;;;9.90;8.33;;;20.60;99.90;;;;;;5020940;28;20262;-80
2021/06/06 11:14:49;;;;;;;9.57;8.30;;;20.50;99.90;;;;;;5019012;28;20308;-80
2021/06/06 11:17:40;;;;;;;10.03;8.13;;;20.80;99.90;;;;;;5040324;28;20214;-80
2021/06/06 11:20:14;;;;;;;9.70;7.90;;;20.90;99.90;;;;;;5028481;28;20206;-80
2021/06/06 11:22:47;;;;;;;11.00;9.03;;;21.00;99.90;;;;;;5037004;28;20203;-80
2021/06/06 11:25:44;;;;;;;11.20;9.20;;;20.80;99.90;;;;;;5003760;28;20203;-81
2021/06/06 11:28:23;;;;;;;12.43;9.47;;;20.70;99.90;;;;;;5023485;28;20223;-80
2021/06/06 11:30:52;;;;;;;9.97;8.60;;;20.70;99.90;;;;;;5034150;28;20235;-80
2021/06/06 11:33:54;;;;;;;11.67;9.13;;;20.70;99.90;;;;;;5017199;28;20207;-80
2021/06/06 11:36:32;;;;;;;9.60;8.50;;;20.90;99.90;;;;;;5018870;28;20215;-81
2021/06/06 11:39:13;;;;;;;9.00;7.77;;;20.70;99.90;;;;;;5037375;28;20767;-80
2021/06/06 11:41:43;;;;;;;9.23;8.00;;;20.50;99.90;;;;;;5016024;28;20343;-82
2021/06/06 11:44:28;;;;;;;7.80;6.97;;;20.20;99.90;;;;;;5000552;28;20221;-81
2021/06/06 11:47:06;;;;;;;9.03;6.97;;;20.30;99.90;;;;;;5007265;28;20218;-81
2021/06/06 11:49:50;;;;;;;10.07;8.13;;;20.20;99.90;;;;;;5037671;28;20267;-80
2021/06/06 11:52:28;;;;;;;9.17;7.13;;;20.50;99.90;;;;;;5008485;28;20303;-81
2021/06/06 11:55:14;;;;;;;8.30;7.07;;;20.60;99.90;;;;;;5016566;28;20189;-81
2021/06/06 11:57:51;;;;;;;7.13;5.60;;;20.50;99.90;;;;;;5017101;28;20222;-80
2021/06/06 12:00:30;;;;;;;7.30;5.90;;;20.50;99.90;;;;;;5016206;28;20231;-81
2021/06/06 12:03:28;;;;;;;5.30;4.80;;;20.40;99.90;;;;;;5022290;28;20198;-83
2021/06/06 12:05:59;;;;;;;8.07;5.43;;;20.40;99.90;;;;;;5005139;28;20270;-82
2021/06/06 12:08:35;;;;;;;6.43;4.83;;;20.20;99.90;;;;;;5017388;28;20515;-81
2021/06/06 12:11:32;;;;;;;7.33;5.50;;;20.20;99.90;;;;;;5025973;28;20258;-81
2021/06/06 12:14:16;;;;;;;5.30;4.50;;;20.50;99.90;;;;;;5020337;28;21094;-81
2021/06/06 12:16:59;;;;;;;6.20;4.70;;;20.60;99.90;;;;;;5017489;28;20206;-82
2021/06/06 12:19:43;;;;;;;6.93;4.70;;;20.70;99.90;;;;;;5037184;28;20214;-82
2021/06/06 12:22:15;;;;;;;6.90;4.80;;;20.80;97.20;;;;;;5029850;28;21192;-82
2021/06/06 12:25:22;;;;;;;4.83;4.33;;;20.80;95.50;;;;;;5012488;28;20263;-81
2021/06/06 12:28:00;;;;;;;4.90;3.90;;;20.70;96.50;;;;;;5017087;28;20222;-82
2021/06/06 12:30:36;;;;;;;4.83;3.53;;;20.70;96.60;;;;;;5019731;28;20518;-81
2021/06/06 12:33:15;;;;;;;3.50;3.20;;;20.80;95.60;;;;;;5015387;28;20220;-82
2021/06/06 12:35:54;;;;;;;4.43;3.37;;;20.90;96.10;;;;;;5013227;28;20210;-82
2021/06/06 12:38:23;;;;;;;5.17;3.63;;;20.80;95.00;;;;;;5036307;28;20232;-82
2021/06/06 12:40:51;;;;;;;5.00;3.27;;;20.80;95.30;;;;;;4996816;28;20287;-82
2021/06/06 12:43:25;;;;;;;4.70;4.00;;;20.70;97.50;;;;;;5012989;28;20666;-82
2021/06/06 12:45:53;;;;;;;3.53;2.97;;;20.70;98.30;;;;;;5018919;28;21717;-82
2021/06/06 12:48:23;;;;;;;3.73;2.80;;;20.60;97.40;;;;;;5000737;28;20214;-81
2021/06/06 12:50:52;;;;;;;4.93;3.37;;;20.60;96.80;;;;;;5016060;28;20216;-81
2021/06/06 12:53:34;;;;;;;4.17;2.80;;;20.60;96.90;;;;;;5002302;28;20260;-81
2021/06/06 12:56:07;;;;;;;5.53;3.23;;;20.70;98.80;;;;;;5020827;28;20701;-81
2021/06/06 12:58:36;;;;;;;3.70;2.63;;;21.00;94.70;;;;;;5036474;28;20226;-81
2021/06/06 13:01:22;;;;;;;4.00;2.83;;;20.80;93.50;;;;;;5003174;28;20317;-82
2021/06/06 13:03:51;;;;;;;3.87;3.37;;;21.00;93.80;;;;;;5037037;28;20267;-82